Airfield :
LOGIN :

Register | Disclaimer

   EN    FR    IT 

 










Legend :    VFR   Marginal VFR   IFR   Intensive IFR   Very Intensive IFR
Visi :
Ceiling :
>= 8 km
>= 3000ft
5 to 8 km
1000 to 3000 ft
1500m to 5 km
500 to 1000 ft
800 to 1500m
200 to 500 ft
< 800m
< 200 ft
Symbols :   Thunderstorms  Fog  Heavy snow  Heavy precipitations  Wind > 20 kt
SIGMETs :     Misc.  Thunderstorms  Icing  Turbulence  Mountain Waves  Volcanic Ashes







- Airport Elevation : 239 ft
- IATA code : VRN


LIPX - Villafranca Int. Verona

CURRENT METAR :
  • 132020Z VRB02KT 9999 SCT080 01/M04 Q1016

EXPIRED METARs :
  • 131950Z 30006KT 9999 SCT080 01/M03 Q1015
  • 131920Z 33005KT 9999 SCT070 01/M03 Q1015
  • 131850Z 04005KT 330V080 9999 SCT080 01/M03 Q1015
  • 131820Z VRB02KT 9999 SCT070 02/M03 Q1015
  • 131750Z VRB01KT 9999 SCT070 02/M03 Q1015

TAF TAF LIPX
Valid from the 13 at 21:00 until the 14 at 06:00 UTC


132000Z 1321/1406 VRB05KT 9999 SCT060
No reported NOTAMs for that airfield.



MET'MAP, your aeronautical weather chart ! - Copyright ORBIFLY December 2007 - Disclaimer

ORBIFLY MET'MAP TEAM :

Programming & Development : Alexandra Zaïnal
Concept & Development : Baudouin d'Aumeries
Co-Development & Prog : Marc-Olivier Méhu
Technical & hardware support : Manuel Goepfert

Contact : metmap@orbifly.com




SOURCES & CREDITS :

   NOAA